createdAt,value
2024-03-22T00:01:05.279Z,7.4
2024-03-22T00:04:04.724Z,7.5
2024-03-22T00:07:04.711Z,7.6
2024-03-22T00:10:04.688Z,7.7
2024-03-22T00:13:04.718Z,7.7
2024-03-22T00:16:04.734Z,7.7
2024-03-22T00:19:04.683Z,7.7
2024-03-22T00:22:04.761Z,7.7
2024-03-22T00:25:04.738Z,7.7
2024-03-22T00:28:04.688Z,7.7
2024-03-22T00:31:04.961Z,7.8
2024-03-22T00:34:04.707Z,7.8
2024-03-22T00:37:04.721Z,7.8
2024-03-22T00:40:04.972Z,7.8
2024-03-22T00:43:04.745Z,7.8
2024-03-22T00:46:04.699Z,7.9
2024-03-22T00:49:04.634Z,7.9
2024-03-22T00:52:04.728Z,7.9
2024-03-22T00:55:04.698Z,8.0
2024-03-22T00:58:04.697Z,8.0
2024-03-22T01:01:04.887Z,8.0
2024-03-22T01:04:04.711Z,8.1
2024-03-22T01:07:04.683Z,8.1
2024-03-22T01:10:04.856Z,8.1
2024-03-22T01:13:04.801Z,8.0
2024-03-22T01:16:04.830Z,8.1
2024-03-22T01:19:04.790Z,8.1
2024-03-22T01:22:04.727Z,8.1
2024-03-22T01:25:04.746Z,8.1
2024-03-22T01:28:04.637Z,8.1
2024-03-22T01:31:04.838Z,8.1
2024-03-22T01:34:04.725Z,8.1
2024-03-22T01:37:04.626Z,8.1
2024-03-22T01:40:04.756Z,8.1
2024-03-22T01:43:04.757Z,8.2
2024-03-22T01:46:04.796Z,8.1
2024-03-22T01:49:04.623Z,8.1
2024-03-22T01:52:04.667Z,8.1
2024-03-22T01:55:04.727Z,8.1
2024-03-22T01:58:04.640Z,8.1
2024-03-22T02:01:04.858Z,8.1
2024-03-22T02:04:04.644Z,8.2
2024-03-22T02:07:04.722Z,8.1
2024-03-22T02:10:04.741Z,8.1
2024-03-22T02:13:04.615Z,8.1
2024-03-22T02:16:04.765Z,8.1
2024-03-22T02:19:04.649Z,8.1
2024-03-22T02:22:04.675Z,8.1
2024-03-22T02:25:04.683Z,8.2
2024-03-22T02:28:04.858Z,8.2
2024-03-22T02:31:04.986Z,8.2
2024-03-22T02:34:04.824Z,8.1
2024-03-22T02:37:04.643Z,8.1
2024-03-22T02:40:04.787Z,8.1
2024-03-22T02:43:04.701Z,8.1
2024-03-22T02:46:04.700Z,8.1
2024-03-22T02:49:04.826Z,8.1
2024-03-22T02:52:04.714Z,8.1
2024-03-22T02:55:04.668Z,8.1
2024-03-22T02:58:04.682Z,8.1
2024-03-22T03:01:06.799Z,8.1
2024-03-22T03:04:04.669Z,8.1
2024-03-22T03:07:04.651Z,8.1
2024-03-22T03:10:04.798Z,8.1
2024-03-22T03:13:04.704Z,8.2
2024-03-22T03:16:04.678Z,8.2
2024-03-22T03:19:04.765Z,8.1
2024-03-22T03:22:04.667Z,8.1
2024-03-22T03:25:04.757Z,8.1
2024-03-22T03:28:04.649Z,8.1
2024-03-22T03:31:04.782Z,8.1
2024-03-22T03:34:04.819Z,8.1
2024-03-22T03:37:04.664Z,8.1
2024-03-22T03:40:04.736Z,8.0
2024-03-22T03:43:04.631Z,8.0
2024-03-22T03:46:04.744Z,8.0
2024-03-22T03:49:04.821Z,7.9
2024-03-22T03:52:04.793Z,7.8
2024-03-22T03:55:04.879Z,7.7
2024-03-22T03:58:04.687Z,7.6
2024-03-22T04:01:04.985Z,7.6
2024-03-22T04:04:04.735Z,7.6
2024-03-22T04:07:04.781Z,7.7
2024-03-22T04:10:04.745Z,7.7
2024-03-22T04:13:04.657Z,7.6
2024-03-22T04:16:04.755Z,7.6
2024-03-22T04:19:04.673Z,7.5
2024-03-22T04:22:04.662Z,7.4
2024-03-22T04:25:04.891Z,7.5
2024-03-22T04:28:04.690Z,7.5
2024-03-22T04:31:04.897Z,7.5
2024-03-22T04:34:04.688Z,7.6
2024-03-22T04:37:04.682Z,7.5
2024-03-22T04:40:04.659Z,7.4
2024-03-22T04:43:04.666Z,7.4
2024-03-22T04:46:04.716Z,7.3
2024-03-22T04:49:04.678Z,7.3
2024-03-22T04:52:04.883Z,7.1
2024-03-22T04:55:04.683Z,7.1
2024-03-22T04:58:04.675Z,7.1
2024-03-22T05:01:04.934Z,7.1
2024-03-22T05:04:04.728Z,6.9
2024-03-22T05:07:04.696Z,6.9
2024-03-22T05:10:04.724Z,6.8
2024-03-22T05:13:04.657Z,6.8
2024-03-22T05:16:04.764Z,6.8
2024-03-22T05:19:04.683Z,6.7
2024-03-22T05:22:04.638Z,6.7
2024-03-22T05:25:04.755Z,6.7
2024-03-22T05:28:04.767Z,6.7
2024-03-22T05:31:04.931Z,6.7
2024-03-22T05:34:04.644Z,6.7
2024-03-22T05:37:04.760Z,6.7
2024-03-22T05:40:04.616Z,6.7
2024-03-22T05:43:04.720Z,6.7
2024-03-22T05:46:04.788Z,6.7
2024-03-22T05:49:04.676Z,6.6
2024-03-22T05:52:04.674Z,6.6
2024-03-22T05:55:04.671Z,6.7
2024-03-22T05:58:04.714Z,6.7
2024-03-22T06:01:04.930Z,6.7
2024-03-22T06:04:04.639Z,6.7
2024-03-22T06:07:04.664Z,6.7
2024-03-22T06:10:04.709Z,6.7
2024-03-22T06:13:04.708Z,6.7
2024-03-22T06:16:04.936Z,6.7
2024-03-22T06:19:04.693Z,6.7
2024-03-22T06:22:05.654Z,6.8
2024-03-22T06:25:04.623Z,6.8
2024-03-22T06:28:04.650Z,6.8
2024-03-22T06:31:04.779Z,6.8
2024-03-22T06:34:04.672Z,6.8
2024-03-22T06:37:04.696Z,6.7
2024-03-22T06:40:04.739Z,6.7
2024-03-22T06:43:04.875Z,6.7
2024-03-22T06:46:04.796Z,6.8
2024-03-22T06:49:07.295Z,6.7
2024-03-22T06:52:04.660Z,6.7
2024-03-22T06:55:04.715Z,6.7
2024-03-22T06:58:04.642Z,6.7
2024-03-22T07:01:04.884Z,6.7
2024-03-22T07:04:04.637Z,6.7
2024-03-22T07:07:04.696Z,6.7
2024-03-22T07:10:04.715Z,6.7
2024-03-22T07:13:04.653Z,6.7
2024-03-22T07:16:06.153Z,6.7
2024-03-22T07:19:04.688Z,6.8
2024-03-22T07:22:04.669Z,6.8
2024-03-22T07:25:04.964Z,6.8
2024-03-22T07:28:04.669Z,6.8
2024-03-22T07:31:05.182Z,6.9
2024-03-22T07:34:04.674Z,6.9
2024-03-22T07:37:13.719Z,6.9
2024-03-22T07:40:04.836Z,6.8
2024-03-22T07:43:04.742Z,6.7
2024-03-22T07:46:04.778Z,6.8
2024-03-22T07:49:04.931Z,6.8
2024-03-22T07:52:04.675Z,6.8
2024-03-22T07:55:04.696Z,6.8
2024-03-22T07:58:04.784Z,6.7
2024-03-22T08:01:05.059Z,6.8
2024-03-22T08:04:04.678Z,6.8
2024-03-22T08:07:04.673Z,6.8
2024-03-22T08:10:04.944Z,6.8
2024-03-22T08:13:04.988Z,6.8
2024-03-22T08:16:04.692Z,6.8
2024-03-22T08:19:04.821Z,6.8
2024-03-22T08:22:05.572Z,6.8
2024-03-22T08:25:04.985Z,6.7
2024-03-22T08:31:07.546Z,6.8
2024-03-22T08:34:04.747Z,6.8
2024-03-22T08:37:04.770Z,6.8
2024-03-22T08:40:04.719Z,6.9
2024-03-22T08:43:04.705Z,7.0
2024-03-22T08:46:04.972Z,7.1
2024-03-22T08:49:04.780Z,7.2
2024-03-22T08:52:06.091Z,7.3
2024-03-22T08:55:06.115Z,7.3
2024-03-22T08:58:17.389Z,7.2
2024-03-22T09:01:05.046Z,7.1
2024-03-22T09:04:05.059Z,7.1
2024-03-22T09:07:13.243Z,7.0
2024-03-22T09:10:04.838Z,7.0
2024-03-22T09:13:04.888Z,7.1
2024-03-22T09:16:05.223Z,7.1
2024-03-22T09:19:05.041Z,7.1
2024-03-22T09:22:04.954Z,7.2
2024-03-22T09:25:05.066Z,7.3
2024-03-22T09:28:04.821Z,7.3
2024-03-22T09:31:14.753Z,7.3
2024-03-22T09:34:04.901Z,7.4
2024-03-22T09:37:05.766Z,7.5
2024-03-22T09:40:04.727Z,7.4
2024-03-22T09:43:04.807Z,7.4
2024-03-22T09:46:04.650Z,7.3
2024-03-22T09:49:04.698Z,7.3
2024-03-22T09:52:04.552Z,7.3
2024-03-22T09:55:04.613Z,7.3
2024-03-22T09:58:04.763Z,7.3
2024-03-22T10:01:04.655Z,7.4
2024-03-22T10:04:04.996Z,7.4
2024-03-22T10:07:04.572Z,7.5
2024-03-22T10:10:04.541Z,7.5
2024-03-22T10:13:06.392Z,7.6
2024-03-22T10:16:04.600Z,7.7
2024-03-22T10:19:04.778Z,7.8
2024-03-22T10:22:04.586Z,7.9
2024-03-22T10:25:04.565Z,7.9
2024-03-22T10:28:04.947Z,7.9
2024-03-22T10:31:05.094Z,7.9
2024-03-22T10:34:04.743Z,7.9
2024-03-22T10:37:04.863Z,7.9
2024-03-22T10:40:04.731Z,8.0
2024-03-22T10:43:04.969Z,7.9
2024-03-22T10:46:04.934Z,7.9
2024-03-22T10:49:04.651Z,8.0
2024-03-22T10:52:04.871Z,8.0
2024-03-22T10:55:05.324Z,8.1
2024-03-22T10:58:04.717Z,8.0
2024-03-22T11:01:05.240Z,8.0
2024-03-22T11:04:04.663Z,8.0
2024-03-22T11:07:06.417Z,7.9
2024-03-22T11:10:04.712Z,8.0
2024-03-22T11:13:04.751Z,8.0
2024-03-22T11:16:04.775Z,8.1
2024-03-22T11:19:04.796Z,8.2
2024-03-22T11:22:04.744Z,8.2
2024-03-22T11:25:04.760Z,8.2
2024-03-22T11:28:04.656Z,8.1
2024-03-22T11:31:04.877Z,8.2
2024-03-22T11:34:05.316Z,8.2
2024-03-22T11:37:04.789Z,8.2
2024-03-22T11:40:04.766Z,8.1
2024-03-22T11:43:04.830Z,8.2
2024-03-22T11:46:04.759Z,8.1
2024-03-22T11:49:04.849Z,8.1
2024-03-22T11:52:04.739Z,8.1
2024-03-22T11:55:04.726Z,8.1
2024-03-22T11:58:04.699Z,8.1
2024-03-22T12:04:04.768Z,8.2
2024-03-22T12:07:04.736Z,8.2
2024-03-22T12:10:04.840Z,8.3
2024-03-22T12:13:05.220Z,8.3
2024-03-22T12:16:04.753Z,8.3
2024-03-22T12:19:04.748Z,8.4
2024-03-22T12:22:04.796Z,8.4
2024-03-22T12:25:04.823Z,8.4
2024-03-22T12:28:12.140Z,8.4
2024-03-22T12:31:04.993Z,8.4
2024-03-22T12:34:04.754Z,8.4
2024-03-22T12:37:04.809Z,8.4
2024-03-22T12:40:04.818Z,8.4
2024-03-22T12:43:04.852Z,8.5
2024-03-22T12:46:04.893Z,8.4
2024-03-22T12:49:05.817Z,8.5
2024-03-22T12:52:04.758Z,8.5
2024-03-22T12:55:04.723Z,8.6
2024-03-22T12:58:04.693Z,8.5
2024-03-22T13:01:05.028Z,8.5
2024-03-22T13:04:04.717Z,8.5
2024-03-22T13:07:04.821Z,8.4
2024-03-22T13:10:04.682Z,8.3
2024-03-22T13:13:04.859Z,8.3
2024-03-22T13:19:04.860Z,8.2
2024-03-22T13:22:04.749Z,8.1
2024-03-22T13:25:04.794Z,8.1
2024-03-22T13:28:04.804Z,8.1
2024-03-22T13:31:04.927Z,8.0
2024-03-22T13:34:04.818Z,7.9
2024-03-22T13:37:04.786Z,7.8
2024-03-22T13:40:04.754Z,7.7
2024-03-22T13:43:04.739Z,7.7
2024-03-22T13:46:06.391Z,7.6
2024-03-22T13:49:04.716Z,7.7
2024-03-22T13:52:05.996Z,7.8
2024-03-22T13:55:04.781Z,7.7
2024-03-22T13:58:15.149Z,7.5
2024-03-22T14:01:05.103Z,7.3
2024-03-22T14:04:04.934Z,7.4
2024-03-22T14:07:05.029Z,7.4
2024-03-22T14:10:04.983Z,7.4
2024-03-22T14:13:04.838Z,7.4
2024-03-22T14:16:05.112Z,7.5
2024-03-22T14:19:04.812Z,7.5
2024-03-22T14:22:04.905Z,7.4
2024-03-22T14:25:04.891Z,7.3
2024-03-22T14:28:04.844Z,7.4
2024-03-22T14:31:05.546Z,7.4
2024-03-22T14:34:04.792Z,7.6
2024-03-22T14:37:04.733Z,7.5
2024-03-22T14:40:04.817Z,7.5
2024-03-22T14:43:04.774Z,7.6
2024-03-22T14:46:04.818Z,7.5
2024-03-22T14:49:04.868Z,7.6
2024-03-22T14:52:04.936Z,7.6
2024-03-22T14:55:04.959Z,7.6
2024-03-22T14:58:05.219Z,7.4
2024-03-22T15:01:04.954Z,7.5
2024-03-22T15:04:07.202Z,7.6
2024-03-22T15:07:04.685Z,7.7
2024-03-22T15:10:05.465Z,7.6
2024-03-22T15:13:04.711Z,7.6
2024-03-22T15:16:05.650Z,7.7
2024-03-22T15:19:04.828Z,7.7
2024-03-22T15:22:04.863Z,7.6
2024-03-22T15:25:04.725Z,7.7
2024-03-22T15:28:04.826Z,7.7
2024-03-22T15:31:05.036Z,7.7
2024-03-22T15:34:04.828Z,7.7
2024-03-22T15:37:04.892Z,7.7
2024-03-22T15:40:04.872Z,7.8
2024-03-22T15:43:04.987Z,7.8
2024-03-22T15:46:05.108Z,7.8
2024-03-22T15:49:04.991Z,7.7
2024-03-22T15:52:05.060Z,7.6
2024-03-22T15:55:04.868Z,7.6
2024-03-22T15:58:04.782Z,7.6
2024-03-22T16:01:05.360Z,7.6
2024-03-22T16:04:04.889Z,7.7
2024-03-22T16:10:08.795Z,7.7
2024-03-22T16:13:05.135Z,7.6
2024-03-22T16:16:05.060Z,7.2
2024-03-22T16:19:04.821Z,6.7
2024-03-22T16:22:04.851Z,6.3
2024-03-22T16:25:04.763Z,6.3
2024-03-22T16:28:04.862Z,6.0
2024-03-22T16:31:05.244Z,5.7
2024-03-22T16:34:04.694Z,5.6
2024-03-22T16:37:04.663Z,5.6
2024-03-22T16:40:04.880Z,5.8
2024-03-22T16:43:04.774Z,5.8
2024-03-22T16:46:04.741Z,5.8
2024-03-22T16:49:04.733Z,5.7
2024-03-22T16:52:05.339Z,5.8
2024-03-22T16:55:04.706Z,5.9
2024-03-22T16:58:05.918Z,5.9
2024-03-22T17:01:04.964Z,5.9
2024-03-22T17:04:04.670Z,6.0
2024-03-22T17:07:10.079Z,6.2
2024-03-22T17:10:04.744Z,6.2
2024-03-22T17:13:09.440Z,6.3
2024-03-22T17:16:04.705Z,6.3
2024-03-22T17:19:04.808Z,6.2
2024-03-22T17:22:04.629Z,6.2
2024-03-22T17:25:04.818Z,6.2
2024-03-22T17:28:04.615Z,6.3
2024-03-22T17:31:04.955Z,6.3
2024-03-22T17:34:05.223Z,6.4
2024-03-22T17:37:04.928Z,6.4
2024-03-22T17:40:04.841Z,6.4
2024-03-22T17:43:04.966Z,6.4
2024-03-22T17:46:05.248Z,6.4
2024-03-22T17:49:05.273Z,6.6
2024-03-22T17:52:05.044Z,6.6
2024-03-22T17:55:05.034Z,6.7
2024-03-22T17:58:04.768Z,6.6
2024-03-22T18:01:05.132Z,6.5
2024-03-22T18:04:04.913Z,6.4
2024-03-22T18:07:09.142Z,6.4
2024-03-22T18:10:05.705Z,6.5
2024-03-22T18:13:04.729Z,6.4
2024-03-22T18:16:04.988Z,6.4
2024-03-22T18:19:04.691Z,6.4
2024-03-22T18:22:04.676Z,6.4
2024-03-22T18:25:04.677Z,6.4
2024-03-22T18:28:04.680Z,6.4
2024-03-22T18:31:04.894Z,6.3
2024-03-22T18:34:04.647Z,6.4
2024-03-22T18:37:04.679Z,6.3
2024-03-22T18:40:04.633Z,6.3
2024-03-22T18:43:04.700Z,6.3
2024-03-22T18:46:04.820Z,6.3
2024-03-22T18:49:04.629Z,6.3
2024-03-22T18:52:04.625Z,6.3
2024-03-22T18:55:04.654Z,6.4
2024-03-22T18:58:04.624Z,6.4
2024-03-22T19:01:04.784Z,6.4
2024-03-22T19:04:04.659Z,6.4
2024-03-22T19:07:04.669Z,6.4
2024-03-22T19:10:04.652Z,6.5
2024-03-22T19:13:04.639Z,6.4
2024-03-22T19:16:04.626Z,6.4
2024-03-22T19:19:04.704Z,6.4
2024-03-22T19:22:04.621Z,6.4
2024-03-22T19:25:04.691Z,6.4
2024-03-22T19:28:04.612Z,6.4
2024-03-22T19:31:05.069Z,6.4
2024-03-22T19:34:04.614Z,6.4
2024-03-22T19:37:04.725Z,6.5
2024-03-22T19:40:04.746Z,6.5
2024-03-22T19:43:04.687Z,6.5
2024-03-22T19:46:06.495Z,6.5
2024-03-22T19:49:04.659Z,6.5
2024-03-22T19:52:04.714Z,6.5
2024-03-22T19:55:04.673Z,6.5
2024-03-22T19:58:04.664Z,6.5
2024-03-22T20:01:05.039Z,6.5
2024-03-22T20:04:04.684Z,6.5
2024-03-22T20:07:04.689Z,6.5
2024-03-22T20:10:04.702Z,6.5
2024-03-22T20:13:04.837Z,6.4
2024-03-22T20:16:04.777Z,6.3
2024-03-22T20:19:04.685Z,6.3
2024-03-22T20:22:04.617Z,6.2
2024-03-22T20:25:04.651Z,6.2
2024-03-22T20:28:04.797Z,6.1
2024-03-22T20:31:04.922Z,6.0
2024-03-22T20:34:04.653Z,6.1
2024-03-22T20:37:04.707Z,6.1
2024-03-22T20:40:04.886Z,6.2
2024-03-22T20:43:04.678Z,6.2
2024-03-22T20:46:04.747Z,6.2
2024-03-22T20:49:04.790Z,6.2
2024-03-22T20:52:04.703Z,6.2
2024-03-22T20:55:04.652Z,6.3
2024-03-22T20:58:04.726Z,6.4
2024-03-22T21:01:05.011Z,6.5
2024-03-22T21:04:05.038Z,6.3
2024-03-22T21:07:04.696Z,6.4
2024-03-22T21:10:04.825Z,6.4
2024-03-22T21:13:04.758Z,6.3
2024-03-22T21:16:04.833Z,6.5
2024-03-22T21:19:04.771Z,6.6
2024-03-22T21:22:04.760Z,6.5
2024-03-22T21:25:04.649Z,6.5
2024-03-22T21:28:04.729Z,6.5
2024-03-22T21:31:04.806Z,6.4
2024-03-22T21:34:04.849Z,6.4
2024-03-22T21:37:04.670Z,6.4
2024-03-22T21:40:04.661Z,6.4
2024-03-22T21:43:04.668Z,6.4
2024-03-22T21:46:04.686Z,6.4
2024-03-22T21:49:04.784Z,6.2
2024-03-22T21:52:04.750Z,6.2
2024-03-22T21:55:04.716Z,6.2
2024-03-22T21:58:04.756Z,6.1
2024-03-22T22:01:04.831Z,6.1
2024-03-22T22:04:04.654Z,6.1
2024-03-22T22:07:04.652Z,6.1
2024-03-22T22:10:04.748Z,6.2
2024-03-22T22:13:04.714Z,6.2
2024-03-22T22:16:08.211Z,6.2
2024-03-22T22:19:04.809Z,6.2
2024-03-22T22:22:04.642Z,6.1
2024-03-22T22:25:04.733Z,6.1
2024-03-22T22:28:04.635Z,6.1
2024-03-22T22:31:04.974Z,6.0
2024-03-22T22:34:04.686Z,6.0
2024-03-22T22:37:04.651Z,6.0
2024-03-22T22:40:04.791Z,6.0
2024-03-22T22:43:04.680Z,6.0
2024-03-22T22:46:04.828Z,6.0
2024-03-22T22:49:04.699Z,6.1
2024-03-22T22:52:04.617Z,6.1
2024-03-22T22:55:04.703Z,6.0
2024-03-22T22:58:04.666Z,5.9
2024-03-22T23:01:05.362Z,6.0
2024-03-22T23:04:04.704Z,5.9
2024-03-22T23:07:04.872Z,5.9
2024-03-22T23:10:04.671Z,5.9
2024-03-22T23:13:04.773Z,5.9
2024-03-22T23:16:05.513Z,5.8
2024-03-22T23:19:04.689Z,5.8
2024-03-22T23:22:05.465Z,5.8
2024-03-22T23:25:04.660Z,5.8
2024-03-22T23:28:04.660Z,5.7
2024-03-22T23:31:05.137Z,5.7
2024-03-22T23:34:04.618Z,5.7
2024-03-22T23:37:04.726Z,5.7
2024-03-22T23:40:04.740Z,5.7
2024-03-22T23:43:04.653Z,5.6
2024-03-22T23:46:04.829Z,5.6
2024-03-22T23:49:04.822Z,5.6
2024-03-22T23:52:04.711Z,5.6
2024-03-22T23:55:04.774Z,5.6
2024-03-22T23:58:04.764Z,5.6
